createdAt,value
2017-06-16T00:09:25.755Z,0
2017-06-16T00:19:35.199Z,0
2017-06-16T00:29:44.657Z,0
2017-06-16T00:39:54.128Z,0
2017-06-16T00:50:03.612Z,0
2017-06-16T01:00:13.073Z,0
2017-06-16T01:10:22.534Z,0
2017-06-16T01:20:31.917Z,0
2017-06-16T01:30:41.360Z,0
2017-06-16T01:40:50.804Z,0
2017-06-16T01:51:00.275Z,0
2017-06-16T02:01:09.783Z,0
2017-06-16T02:11:19.255Z,0
2017-06-16T02:21:28.730Z,0
2017-06-16T02:31:38.239Z,0
2017-06-16T02:41:47.767Z,0
2017-06-16T02:51:57.311Z,0
2017-06-16T03:02:06.885Z,5
2017-06-16T03:12:16.450Z,15
2017-06-16T03:22:25.973Z,30
2017-06-16T03:32:35.524Z,50
2017-06-16T03:42:45.004Z,75
2017-06-16T03:52:54.409Z,100
2017-06-16T04:03:03.748Z,125
2017-06-16T04:13:13.056Z,165
2017-06-16T04:23:22.276Z,190
2017-06-16T04:33:31.490Z,145
2017-06-16T04:43:40.738Z,160
2017-06-16T04:53:49.979Z,235
2017-06-16T05:03:59.166Z,400
2017-06-16T05:14:08.228Z,380
2017-06-16T05:24:17.213Z,310
2017-06-16T05:34:26.226Z,375
2017-06-16T05:44:35.211Z,430
2017-06-16T05:54:44.070Z,535
2017-06-16T06:04:52.860Z,585
2017-06-16T06:15:01.587Z,485
2017-06-16T06:25:10.323Z,405
2017-06-16T06:35:19.136Z,305
2017-06-16T06:45:28.073Z,225
2017-06-16T06:55:37.031Z,480
2017-06-16T07:05:45.943Z,760
2017-06-16T07:15:54.528Z,885
2017-06-16T07:26:03.134Z,895
2017-06-16T07:36:11.662Z,2310
2017-06-16T07:46:19.964Z,1555
2017-06-16T07:56:28.204Z,2625
2017-06-16T08:06:36.351Z,450
2017-06-16T08:16:44.778Z,280
2017-06-16T08:26:53.520Z,555
2017-06-16T08:37:02.182Z,1345
2017-06-16T08:47:10.376Z,2955
2017-06-16T08:57:18.356Z,3090
2017-06-16T09:07:26.121Z,935
2017-06-16T09:17:34.037Z,420
2017-06-16T09:27:42.301Z,605
2017-06-16T09:37:50.796Z,285
2017-06-16T09:47:59.523Z,715
2017-06-16T09:58:08.166Z,1665
2017-06-16T10:08:16.690Z,340
2017-06-16T10:18:25.301Z,1115
2017-06-16T10:28:33.770Z,1215
2017-06-16T10:38:42.126Z,430
2017-06-16T10:48:50.717Z,410
2017-06-16T10:58:59.291Z,1945
2017-06-16T11:09:07.639Z,600
2017-06-16T11:19:16.034Z,925
2017-06-16T11:29:24.521Z,535
2017-06-16T11:39:33.043Z,450
2017-06-16T11:49:41.742Z,405
2017-06-16T11:59:50.463Z,1555
2017-06-16T12:09:59.072Z,615
2017-06-16T12:20:07.746Z,570
2017-06-16T12:30:16.522Z,655
2017-06-16T12:40:25.219Z,1135
2017-06-16T12:50:33.711Z,1275
2017-06-16T13:00:42.098Z,745
2017-06-16T13:10:50.457Z,940
2017-06-16T13:20:58.832Z,725
2017-06-16T13:31:07.435Z,285
2017-06-16T13:41:16.092Z,715
2017-06-16T13:51:24.684Z,945
2017-06-16T14:01:33.120Z,1520
2017-06-16T14:11:41.406Z,905
2017-06-16T14:21:49.730Z,955
2017-06-16T14:31:58.176Z,795
2017-06-16T14:42:06.643Z,1135
2017-06-16T14:52:15.020Z,505
2017-06-16T15:02:23.599Z,175
2017-06-16T15:12:32.446Z,550
2017-06-16T15:22:41.386Z,525
2017-06-16T15:32:50.244Z,955
2017-06-16T15:42:58.987Z,500
2017-06-16T15:53:07.859Z,190
2017-06-16T16:03:16.874Z,360
2017-06-16T16:13:25.877Z,760
2017-06-16T16:23:34.662Z,1020
2017-06-16T16:33:43.387Z,445
2017-06-16T16:43:52.338Z,290
2017-06-16T16:54:01.310Z,405
2017-06-16T17:04:10.281Z,385
2017-06-16T17:14:19.291Z,325
2017-06-16T17:24:28.369Z,150
2017-06-16T17:34:37.500Z,195
2017-06-16T17:44:46.545Z,270
2017-06-16T17:54:55.639Z,225
2017-06-16T18:05:04.750Z,210
2017-06-16T18:15:13.812Z,260
2017-06-16T18:25:22.860Z,205
2017-06-16T18:35:32.016Z,145
2017-06-16T18:45:41.219Z,130
2017-06-16T18:55:50.532Z,105
2017-06-16T19:05:59.883Z,85
2017-06-16T19:16:09.278Z,40
2017-06-16T19:26:18.732Z,15
2017-06-16T19:36:28.236Z,25
2017-06-16T19:46:37.730Z,15
2017-06-16T19:56:47.259Z,10
2017-06-16T20:06:56.793Z,5
2017-06-16T20:17:06.340Z,0
2017-06-16T20:27:15.897Z,0
2017-06-16T20:37:25.492Z,0
2017-06-16T20:47:35.139Z,0
2017-06-16T20:57:44.779Z,0
2017-06-16T21:07:54.713Z,0
2017-06-16T21:18:04.227Z,0
2017-06-16T21:28:13.960Z,0
2017-06-16T21:38:23.664Z,0
2017-06-16T21:48:33.416Z,0
2017-06-16T21:58:43.217Z,0
2017-06-16T22:08:53.077Z,0
2017-06-16T22:19:02.951Z,0
2017-06-16T22:29:12.875Z,0
2017-06-16T22:39:22.789Z,0
2017-06-16T22:49:32.708Z,0
2017-06-16T22:59:42.640Z,0
2017-06-16T23:09:52.601Z,0
2017-06-16T23:20:02.574Z,0
2017-06-16T23:30:12.597Z,0
2017-06-16T23:40:22.687Z,0
2017-06-16T23:50:32.760Z,0
